Date,TemperatureHighF,TemperatureAvgF,TemperatureLowF,DewpointHighF,DewpointAvgF,DewpointLowF,HumidityHigh,HumidityAvg,HumidityLow,PressureMaxIn,PressureMinIn,WindSpeedMaxMPH,WindSpeedAvgMPH,GustSpeedMaxMPH,PrecipitationSumIn
2013-2-1,66,51,39,44,38,32,85,63,38,30.08,29.97,7,1,7,0.00
2013-2-2,64,51,43,45,39,36,85,64,38,30.14,30.04,6,1,6,0.00
2013-2-3,62,49,40,47,39,34,89,70,46,30.10,29.97,6,1,6,0.00
2013-2-4,64,50,40,48,40,34,90,70,47,30.04,29.91,6,1,6,0.00
2013-2-5,60,50,44,44,40,37,85,69,48,29.99,29.90,12,3,12,0.00
2013-2-6,62,49,41,46,38,33,94,68,38,30.06,29.96,9,3,9,0.00
2013-2-7,60,48,40,47,36,24,85,64,30,30.01,29.85,13,4,13,0.00
2013-2-8,58,48,39,39,28,8,86,52,14,29.89,29.77,14,5,14,0.00
2013-2-9,59,47,37,27,21,13,59,39,17,29.95,29.83,9,3,9,0.00
2013-2-10,61,47,34,34,27,20,73,49,21,30.00,29.86,14,2,14,0.00
2013-2-11,63,42,35,28,25,13,70,54,14,30.07,29.93,6,1,6,0.00
2013-2-12,62,49,36,36,29,24,73,48,25,30.23,30.07,5,1,5,0.00
2013-2-13,65,50,37,40,32,27,74,51,29,30.19,30.05,6,1,6,0.00
2013-2-14,69,53,39,42,34,30,79,52,25,30.11,30.00,9,2,9,0.00
2013-2-15,71,54,41,44,36,30,79,53,22,30.16,30.05,5,1,5,0.00
2013-2-16,69,54,43,43,35,27,82,53,21,30.11,29.89,7,2,7,0.00
2013-2-18,50,48,46,35,34,33,62,58,53,29.81,29.78,14,7,14,0.00
2013-2-19,49,44,39,44,36,32,84,73,61,29.79,29.59,14,4,14,0.03
2013-2-20,60,46,34,38,26,7,87,54,13,29.88,29.68,14,3,14,0.00
2013-2-21,61,48,37,37,25,4,78,48,10,30.02,29.86,14,3,14,0.00
2013-2-22,65,51,37,36,29,20,70,46,18,30.09,29.99,8,2,8,0.00
2013-2-23,60,52,44,38,18,-13,77,37,5,30.08,29.97,16,6,16,0.00
2013-2-24,61,47,39,22,15,1,49,30,10,30.10,30.01,15,8,15,0.00
2013-2-25,66,54,30,35,23,-20,63,32,10,30.11,29.99,12,4,12,0.00
2013-2-26,67,53,41,27,11,-10,55,26,5,30.22,29.87,20,6,20,0.00
2013-2-27,70,53,37,35,22,8,59,34,10,30.54,30.08,5,1,5,0.00
2013-2-28,73,58,44,39,30,14,60,39,11,30.27,30.17,9,1,9,0.00